Time;durP1;ratioP1;P1;durP2;ratioP2;P2;SDS_P1;SDS_P2;PMS_P1;PMS_P2;Temp;Humidity;BMP_temperature;BMP_pressure;BME280_temperature;BME280_humidity;BME280_pressure;Samples;Min_cycle;Max_cycle;Signal;HPM_P1;HPM_P2
2022/04/20 00:02:18;;;;;;;0.40;0.30;;;8.50;59.40;;;;;;5033693;28;20561;-80
2022/04/20 00:04:45;;;;;;;0.30;0.30;;;8.50;59.50;;;;;;5033958;28;20443;-80
2022/04/20 00:07:13;;;;;;;0.30;0.30;;;8.50;59.50;;;;;;5033704;28;20450;-79
2022/04/20 00:09:40;;;;;;;0.80;0.53;;;8.60;59.70;;;;;;5033655;28;20451;-80
2022/04/20 00:12:08;;;;;;;0.30;0.30;;;8.40;60.30;;;;;;5037530;28;20463;-80
2022/04/20 00:14:35;;;;;;;0.40;0.30;;;8.40;61.30;;;;;;5033347;28;20434;-80
2022/04/20 00:17:01;;;;;;;0.30;0.30;;;8.20;61.80;;;;;;5033536;28;20481;-80
2022/04/20 00:19:28;;;;;;;0.50;0.50;;;8.10;62.40;;;;;;5033560;28;20453;-80
2022/04/20 00:21:55;;;;;;;1.43;0.40;;;8.00;62.90;;;;;;5032875;28;20471;-79
2022/04/20 00:24:23;;;;;;;0.30;0.30;;;8.00;63.10;;;;;;5033615;28;20477;-78
2022/04/20 00:26:50;;;;;;;0.30;0.30;;;8.00;63.30;;;;;;5033061;28;20811;-80
2022/04/20 00:29:16;;;;;;;1.20;0.47;;;7.90;63.60;;;;;;5033609;28;20442;-79
2022/04/20 00:31:43;;;;;;;0.40;0.30;;;7.80;64.30;;;;;;5033335;28;20498;-79
2022/04/20 00:34:10;;;;;;;0.60;0.40;;;7.80;64.60;;;;;;5033030;28;20978;-79
2022/04/20 00:36:36;;;;;;;0.30;0.30;;;7.70;65.20;;;;;;5033248;28;20489;-79
2022/04/20 00:39:04;;;;;;;0.63;0.40;;;7.70;65.50;;;;;;5033263;28;20447;-79
2022/04/20 00:41:32;;;;;;;0.40;0.30;;;7.70;65.70;;;;;;5032939;28;20462;-80
2022/04/20 00:44:00;;;;;;;0.70;0.50;;;7.70;66.10;;;;;;5033090;28;20969;-77
2022/04/20 00:46:28;;;;;;;0.70;0.43;;;7.60;67.00;;;;;;5033299;28;20435;-79
2022/04/20 00:48:56;;;;;;;0.40;0.40;;;7.60;67.50;;;;;;5033015;28;20450;-80
2022/04/20 00:51:23;;;;;;;0.30;0.30;;;7.60;68.10;;;;;;5033136;28;20474;-78
2022/04/20 00:53:49;;;;;;;0.40;0.37;;;7.50;68.80;;;;;;5033388;28;20446;-79
2022/04/20 00:56:16;;;;;;;0.30;0.30;;;7.40;69.50;;;;;;5032939;28;20490;-79
2022/04/20 00:58:45;;;;;;;0.40;0.33;;;7.40;69.60;;;;;;5032922;28;20441;-79
2022/04/20 01:01:12;;;;;;;0.30;0.30;;;7.40;70.00;;;;;;5032801;28;20478;-81
2022/04/20 01:03:38;;;;;;;0.67;0.40;;;7.30;70.30;;;;;;5033174;28;20449;-80
2022/04/20 01:06:07;;;;;;;0.60;0.50;;;7.30;70.90;;;;;;5032768;28;20576;-81
2022/04/20 01:08:34;;;;;;;0.40;0.40;;;7.30;71.70;;;;;;5033050;28;20485;-80
2022/04/20 01:11:01;;;;;;;0.40;0.40;;;7.30;71.20;;;;;;5033064;28;20467;-81
2022/04/20 01:13:28;;;;;;;0.40;0.40;;;7.30;71.10;;;;;;5033149;28;20451;-81
2022/04/20 01:15:56;;;;;;;0.40;0.40;;;7.30;71.50;;;;;;5032877;28;21012;-81
2022/04/20 01:18:23;;;;;;;0.93;0.93;;;7.30;71.90;;;;;;5033007;28;20447;-80
2022/04/20 01:20:51;;;;;;;0.40;0.30;;;7.30;72.60;;;;;;5032998;28;20450;-80
2022/04/20 01:23:17;;;;;;;0.30;0.30;;;7.20;72.50;;;;;;5033077;28;20447;-80
2022/04/20 01:25:44;;;;;;;0.33;0.33;;;7.20;73.10;;;;;;5032676;28;20449;-81
2022/04/20 01:28:11;;;;;;;0.50;0.30;;;7.20;73.50;;;;;;5032945;28;20462;-81
2022/04/20 01:30:38;;;;;;;0.50;0.40;;;7.10;73.80;;;;;;5032886;28;20443;-80
2022/04/20 01:33:05;;;;;;;1.53;1.20;;;7.10;74.90;;;;;;5032910;28;20534;-80
2022/04/20 01:35:31;;;;;;;0.90;0.50;;;7.10;74.50;;;;;;5036209;28;20522;-81
2022/04/20 01:37:59;;;;;;;0.53;0.30;;;7.10;74.80;;;;;;5036465;28;20457;-80
2022/04/20 01:40:26;;;;;;;0.50;0.50;;;7.10;73.50;;;;;;5036527;28;20446;-80
2022/04/20 01:42:53;;;;;;;0.40;0.40;;;7.10;73.60;;;;;;5036385;28;20470;-80
2022/04/20 01:45:20;;;;;;;1.43;0.60;;;7.00;74.00;;;;;;5036096;28;20965;-80
2022/04/20 01:47:46;;;;;;;0.40;0.30;;;7.00;73.80;;;;;;5035002;28;20954;-80
2022/04/20 01:50:13;;;;;;;0.63;0.47;;;6.90;74.90;;;;;;5035921;28;20918;-80
2022/04/20 01:52:40;;;;;;;3.80;0.60;;;6.90;75.30;;;;;;5036143;28;20462;-80
2022/04/20 01:55:09;;;;;;;1.00;0.93;;;6.90;75.80;;;;;;5036419;28;20449;-80
2022/04/20 01:57:36;;;;;;;0.40;0.40;;;6.90;75.70;;;;;;5035851;28;20498;-79
2022/04/20 02:00:03;;;;;;;0.40;0.30;;;6.80;76.50;;;;;;5036005;28;20958;-80
2022/04/20 02:02:34;;;;;;;0.67;0.50;;;6.80;77.30;;;;;;5035617;28;20969;-80
2022/04/20 02:05:02;;;;;;;0.40;0.30;;;6.70;77.30;;;;;;5036044;28;20434;-80
2022/04/20 02:07:29;;;;;;;0.43;0.43;;;6.70;78.10;;;;;;5035915;28;20446;-80
2022/04/20 02:09:56;;;;;;;0.40;0.40;;;6.70;77.90;;;;;;5035619;28;20435;-79
2022/04/20 02:12:24;;;;;;;1.33;0.50;;;6.70;78.80;;;;;;5035805;28;20909;-80
2022/04/20 02:14:50;;;;;;;0.43;0.43;;;6.70;78.50;;;;;;5035951;28;20451;-80
2022/04/20 02:17:17;;;;;;;0.30;0.20;;;6.60;79.10;;;;;;5040671;28;20501;-79
2022/04/20 02:19:44;;;;;;;0.40;0.30;;;6.60;79.80;;;;;;5035352;28;20942;-80
2022/04/20 02:22:11;;;;;;;0.40;0.40;;;6.60;80.20;;;;;;5035594;28;20469;-80
2022/04/20 02:24:38;;;;;;;1.90;0.60;;;6.60;79.90;;;;;;5035564;28;20446;-80
2022/04/20 02:27:05;;;;;;;0.40;0.40;;;6.60;79.70;;;;;;5035549;28;20443;-80
2022/04/20 02:29:33;;;;;;;0.40;0.40;;;6.60;80.50;;;;;;5035500;28;20451;-80
2022/04/20 02:31:59;;;;;;;0.30;0.27;;;6.60;79.20;;;;;;5035387;28;20467;-80
2022/04/20 02:34:26;;;;;;;0.80;0.50;;;6.60;80.20;;;;;;5035152;28;20964;-81
2022/04/20 02:36:53;;;;;;;0.40;0.30;;;6.50;81.10;;;;;;5035339;28;20482;-80
2022/04/20 02:39:20;;;;;;;1.33;0.40;;;6.50;80.70;;;;;;5035299;28;20454;-80
2022/04/20 02:41:48;;;;;;;0.30;0.20;;;6.40;81.40;;;;;;5034871;28;20471;-80
2022/04/20 02:44:15;;;;;;;0.40;0.40;;;6.50;81.30;;;;;;5034810;28;20446;-81
2022/04/20 02:46:44;;;;;;;0.30;0.30;;;6.50;81.70;;;;;;5035102;28;20443;-80
2022/04/20 02:49:12;;;;;;;1.17;0.50;;;6.50;81.60;;;;;;5035051;28;20943;-78
2022/04/20 02:51:39;;;;;;;0.97;0.40;;;6.40;81.50;;;;;;5035169;28;20466;-80
2022/04/20 02:54:05;;;;;;;0.37;0.30;;;6.50;81.60;;;;;;5035134;28;20446;-80
2022/04/20 02:56:32;;;;;;;0.40;0.40;;;6.40;81.70;;;;;;5035383;28;20487;-79
2022/04/20 02:58:59;;;;;;;0.47;0.47;;;6.50;82.00;;;;;;5035095;28;20435;-80
2022/04/20 03:01:28;;;;;;;0.80;0.30;;;6.40;82.20;;;;;;5034751;28;20474;-80
2022/04/20 03:03:56;;;;;;;0.30;0.30;;;6.30;83.20;;;;;;5034773;28;21060;-80
2022/04/20 03:06:22;;;;;;;2.40;0.60;;;6.30;83.30;;;;;;5035214;28;20447;-79
2022/04/20 03:08:49;;;;;;;0.40;0.40;;;6.20;83.90;;;;;;5034600;28;20938;-79
2022/04/20 03:11:16;;;;;;;0.30;0.30;;;6.20;84.20;;;;;;5034950;28;20864;-80
2022/04/20 03:13:44;;;;;;;0.50;0.33;;;6.10;84.80;;;;;;5035046;28;20458;-80
2022/04/20 03:16:10;;;;;;;0.67;0.43;;;6.10;85.30;;;;;;5034797;28;20446;-80
2022/04/20 03:18:37;;;;;;;0.50;0.50;;;6.10;85.90;;;;;;5034624;28;20435;-80
2022/04/20 03:21:05;;;;;;;0.40;0.33;;;5.90;87.00;;;;;;5034322;28;20978;-80
2022/04/20 03:23:32;;;;;;;0.40;0.30;;;5.90;87.90;;;;;;5034697;28;20443;-79
2022/04/20 03:26:00;;;;;;;0.33;0.30;;;5.80;88.90;;;;;;5034286;28;21000;-79
2022/04/20 03:28:27;;;;;;;0.40;0.40;;;5.70;89.70;;;;;;5034584;28;20961;-80
2022/04/20 03:30:54;;;;;;;0.40;0.30;;;5.70;90.50;;;;;;5034427;28;20549;-79
2022/04/20 03:33:21;;;;;;;0.90;0.57;;;5.60;91.00;;;;;;5034289;28;20447;-80
2022/04/20 03:35:48;;;;;;;0.33;0.33;;;5.60;91.30;;;;;;5034286;28;20438;-79
2022/04/20 03:38:16;;;;;;;0.30;0.30;;;5.60;91.40;;;;;;5034265;28;20489;-79
2022/04/20 03:40:43;;;;;;;0.60;0.60;;;5.60;92.10;;;;;;5034180;28;20450;-79
2022/04/20 03:43:10;;;;;;;0.30;0.30;;;5.60;92.50;;;;;;5033905;28;20969;-79
2022/04/20 03:45:36;;;;;;;0.53;0.53;;;5.60;93.20;;;;;;5033963;28;20430;-79
2022/04/20 03:48:04;;;;;;;0.40;0.40;;;5.70;92.60;;;;;;5034039;28;20450;-79
2022/04/20 03:50:31;;;;;;;0.40;0.40;;;5.80;92.30;;;;;;5034192;28;20457;-79
2022/04/20 03:52:58;;;;;;;0.37;0.30;;;5.70;92.90;;;;;;5034200;28;20466;-80
2022/04/20 03:55:26;;;;;;;0.37;0.33;;;5.70;92.60;;;;;;5033977;28;20443;-80
2022/04/20 03:57:53;;;;;;;0.40;0.40;;;5.70;92.50;;;;;;5032820;28;20491;-80
2022/04/20 04:00:20;;;;;;;0.40;0.40;;;5.70;92.60;;;;;;5033781;28;20943;-80
2022/04/20 04:02:47;;;;;;;0.47;0.30;;;5.70;92.90;;;;;;5034150;28;20482;-80
2022/04/20 04:05:13;;;;;;;0.50;0.40;;;5.60;93.20;;;;;;5033987;28;20461;-80
2022/04/20 04:07:41;;;;;;;0.30;0.30;;;5.60;93.20;;;;;;5033958;28;20447;-80
2022/04/20 04:10:09;;;;;;;0.30;0.30;;;5.50;93.60;;;;;;5033705;28;20446;-80
2022/04/20 04:12:37;;;;;;;0.40;0.40;;;5.50;94.50;;;;;;5033721;28;20472;-80
2022/04/20 04:15:06;;;;;;;0.40;0.30;;;5.50;95.30;;;;;;5033690;28;20508;-81
2022/04/20 04:17:33;;;;;;;0.53;0.40;;;5.50;95.50;;;;;;5033783;28;20524;-81
2022/04/20 04:20:00;;;;;;;0.47;0.47;;;5.50;95.60;;;;;;5033885;28;20942;-82
2022/04/20 04:22:27;;;;;;;0.30;0.30;;;5.40;95.30;;;;;;5033494;28;20467;-81
2022/04/20 04:24:54;;;;;;;0.33;0.33;;;5.40;95.20;;;;;;5033472;28;20454;-81
2022/04/20 04:27:20;;;;;;;0.80;0.43;;;5.40;94.90;;;;;;5033605;28;20442;-80
2022/04/20 04:29:48;;;;;;;0.30;0.30;;;5.40;95.30;;;;;;5034020;28;20849;-81
2022/04/20 04:32:15;;;;;;;0.30;0.20;;;5.30;95.60;;;;;;5033198;28;20825;-81
2022/04/20 04:34:42;;;;;;;0.30;0.30;;;5.30;96.10;;;;;;5033373;28;20439;-81
2022/04/20 04:37:10;;;;;;;0.47;0.33;;;5.30;96.80;;;;;;5033359;28;20478;-81
2022/04/20 04:39:36;;;;;;;0.40;0.30;;;5.40;97.70;;;;;;5033252;28;20454;-81
2022/04/20 04:42:03;;;;;;;0.30;0.30;;;5.40;97.90;;;;;;5033162;28;20478;-81
2022/04/20 04:44:32;;;;;;;0.40;0.30;;;5.40;97.30;;;;;;5033199;28;20450;-81
2022/04/20 04:49:44;;;;;;;0.40;0.40;;;5.50;96.60;;;;;;5033254;28;20901;-81
2022/04/20 04:52:12;;;;;;;0.30;0.30;;;5.60;96.10;;;;;;5033030;28;20470;-81
2022/04/20 04:54:42;;;;;;;1.70;0.53;;;5.50;96.40;;;;;;5032777;28;20447;-81
2022/04/20 04:57:10;;;;;;;0.40;0.40;;;5.50;97.00;;;;;;5032914;28;20490;-81
2022/04/20 04:59:37;;;;;;;0.37;0.37;;;5.60;97.50;;;;;;5033059;28;20450;-81
2022/04/20 05:02:07;;;;;;;0.40;0.40;;;5.60;97.30;;;;;;5032764;28;20861;-81
2022/04/20 05:04:35;;;;;;;0.30;0.30;;;5.60;97.70;;;;;;5032996;28;20450;-81
2022/04/20 05:07:01;;;;;;;0.37;0.30;;;5.60;97.00;;;;;;5033121;28;20463;-81
2022/04/20 05:09:28;;;;;;;0.50;0.40;;;5.60;97.40;;;;;;5036343;28;20942;-80
2022/04/20 05:11:55;;;;;;;0.30;0.30;;;5.70;96.90;;;;;;5036964;28;20462;-81
2022/04/20 05:14:22;;;;;;;0.40;0.30;;;5.80;96.00;;;;;;5036727;28;20922;-81
2022/04/20 05:16:49;;;;;;;0.30;0.20;;;5.80;96.00;;;;;;5036822;28;20457;-81
2022/04/20 05:19:17;;;;;;;0.40;0.30;;;5.80;96.10;;;;;;5036690;28;20569;-82
2022/04/20 05:21:44;;;;;;;0.50;0.50;;;5.80;96.40;;;;;;5036585;28;20471;-82
2022/04/20 05:24:11;;;;;;;0.30;0.30;;;5.80;96.50;;;;;;5036944;28;20450;-82
2022/04/20 05:26:38;;;;;;;0.30;0.30;;;5.80;96.60;;;;;;5036518;28;20435;-81
2022/04/20 05:29:05;;;;;;;0.30;0.30;;;5.90;95.90;;;;;;5036405;28;20462;-81
2022/04/20 05:31:32;;;;;;;0.40;0.40;;;6.00;95.70;;;;;;5036613;28;20474;-81
2022/04/20 05:33:59;;;;;;;0.60;0.60;;;6.00;95.40;;;;;;5036276;28;20446;-82
2022/04/20 05:41:39;;;;;;;0.67;0.33;;;6.00;95.40;;;;;;5036607;28;20455;-82
2022/04/20 05:41:57;;;;;;;0.30;0.20;;;6.20;94.30;;;;;;5036354;28;20449;-82
2022/04/20 05:44:24;;;;;;;0.30;0.30;;;6.30;94.00;;;;;;5036512;28;20418;-82
2022/04/20 05:46:51;;;;;;;0.30;0.30;;;6.30;93.70;;;;;;5036496;28;20447;-81
2022/04/20 05:49:18;;;;;;;0.40;0.30;;;6.50;93.50;;;;;;5036583;28;20442;-81
2022/04/20 05:51:46;;;;;;;0.30;0.30;;;6.60;93.10;;;;;;5036006;28;20989;-81
2022/04/20 05:54:13;;;;;;;0.30;0.30;;;6.90;92.20;;;;;;5036269;28;20819;-81
2022/04/20 05:56:40;;;;;;;0.60;0.60;;;7.10;91.70;;;;;;5036100;28;20484;-81
2022/04/20 05:59:07;;;;;;;0.83;0.83;;;7.30;90.80;;;;;;5035950;28;20469;-82
2022/04/20 06:01:34;;;;;;;0.40;0.40;;;7.60;90.30;;;;;;5036070;28;20470;-81
2022/04/20 06:04:00;;;;;;;1.10;1.00;;;7.90;89.70;;;;;;5036080;28;20473;-81
2022/04/20 06:06:28;;;;;;;0.57;0.33;;;8.10;87.40;;;;;;5035979;28;20454;-82
2022/04/20 06:08:56;;;;;;;0.30;0.30;;;8.30;84.70;;;;;;5036164;28;20453;-82
2022/04/20 06:11:24;;;;;;;0.40;0.30;;;8.50;83.60;;;;;;5035845;28;20467;-80
2022/04/20 06:13:50;;;;;;;0.30;0.30;;;8.80;81.70;;;;;;5035572;28;20869;-79
2022/04/20 06:16:17;;;;;;;1.23;0.60;;;8.90;82.00;;;;;;5035701;28;20455;-82
2022/04/20 06:18:44;;;;;;;0.40;0.40;;;9.10;79.00;;;;;;5035301;28;21013;-82
2022/04/20 06:21:11;;;;;;;0.90;0.90;;;9.30;77.70;;;;;;5034894;28;20463;-79
2022/04/20 06:23:37;;;;;;;0.60;0.50;;;9.40;77.20;;;;;;5035712;28;20457;-82
2022/04/20 06:26:05;;;;;;;0.50;0.50;;;9.50;76.30;;;;;;5035358;28;20981;-82
2022/04/20 06:28:32;;;;;;;1.43;0.40;;;9.50;75.80;;;;;;5035641;28;20529;-81
2022/04/20 06:30:59;;;;;;;0.30;0.30;;;9.70;75.20;;;;;;5035590;28;20471;-81
2022/04/20 06:33:26;;;;;;;0.93;0.40;;;10.00;72.40;;;;;;5035171;28;20446;-82
2022/04/20 06:35:53;;;;;;;1.07;0.30;;;10.30;70.90;;;;;;5035238;28;20438;-80
2022/04/20 06:38:20;;;;;;;0.50;0.40;;;10.40;70.70;;;;;;5035144;28;20851;-81
2022/04/20 06:40:47;;;;;;;0.40;0.37;;;10.90;69.80;;;;;;5035342;28;20457;-81
2022/04/20 06:43:15;;;;;;;1.17;0.60;;;11.50;67.50;;;;;;5035103;28;20969;-82
2022/04/20 06:45:43;;;;;;;1.33;0.73;;;12.00;65.70;;;;;;5035116;28;20446;-82
2022/04/20 06:48:09;;;;;;;0.50;0.40;;;12.20;65.20;;;;;;5035251;28;20446;-82
2022/04/20 06:50:37;;;;;;;0.43;0.43;;;12.30;66.60;;;;;;5035195;28;20431;-82
2022/04/20 06:58:35;;;;;;;0.47;0.47;;;13.40;60.60;;;;;;5034656;28;20570;-81
2022/04/20 07:01:05;;;;;;;0.80;0.80;;;14.20;59.20;;;;;;5034954;28;20478;-83
2022/04/20 07:03:32;;;;;;;0.97;0.40;;;14.80;56.60;;;;;;5035164;28;20538;-81
2022/04/20 07:06:00;;;;;;;0.90;0.53;;;15.20;57.00;;;;;;5034876;28;20435;-80
2022/04/20 07:08:27;;;;;;;1.80;0.70;;;15.50;56.00;;;;;;5034852;28;20439;-82
2022/04/20 07:10:54;;;;;;;0.50;0.50;;;15.40;55.20;;;;;;5034707;28;20453;-82
2022/04/20 07:13:21;;;;;;;1.03;0.60;;;15.90;53.80;;;;;;5034843;28;20450;-83
2022/04/20 07:15:49;;;;;;;1.03;0.50;;;16.30;52.80;;;;;;5034685;28;20443;-83
2022/04/20 07:18:16;;;;;;;2.40;0.90;;;16.30;51.30;;;;;;5034558;28;20489;-83
2022/04/20 07:20:43;;;;;;;0.80;0.60;;;16.60;50.20;;;;;;5034480;28;20459;-81
2022/04/20 07:23:10;;;;;;;0.80;0.57;;;16.80;51.00;;;;;;5034523;28;20450;-82
2022/04/20 07:25:38;;;;;;;0.77;0.63;;;17.70;49.70;;;;;;5034498;28;20438;-83
2022/04/20 07:28:05;;;;;;;1.00;0.70;;;17.80;49.20;;;;;;5034460;28;20478;-82
2022/04/20 07:30:32;;;;;;;0.60;0.60;;;18.50;46.80;;;;;;5034375;28;20489;-81
2022/04/20 07:33:01;;;;;;;0.60;0.60;;;18.80;45.50;;;;;;5034148;28;20462;-82
2022/04/20 07:35:28;;;;;;;0.67;0.60;;;18.90;45.60;;;;;;5034297;28;20447;-82
2022/04/20 07:37:55;;;;;;;1.70;0.60;;;19.30;45.20;;;;;;5034081;28;20482;-82
2022/04/20 07:40:23;;;;;;;1.63;0.70;;;19.50;44.50;;;;;;5034108;28;20549;-82
2022/04/20 07:42:53;;;;;;;0.80;0.60;;;19.90;43.70;;;;;;5034104;28;20470;-81
2022/04/20 07:45:20;;;;;;;1.93;0.80;;;20.10;43.20;;;;;;5034243;28;20434;-81
2022/04/20 07:47:46;;;;;;;0.73;0.73;;;19.90;43.30;;;;;;5034149;28;20493;-81
2022/04/20 07:50:21;;;;;;;1.10;1.00;;;19.90;43.30;;;;;;5033766;28;20453;-83
2022/04/20 07:52:49;;;;;;;0.87;0.87;;;20.00;43.30;;;;;;5034031;28;20473;-83
2022/04/20 07:55:18;;;;;;;0.80;0.70;;;20.20;42.40;;;;;;5034028;28;20485;-83
2022/04/20 07:57:45;;;;;;;1.37;1.33;;;19.90;42.60;;;;;;5033693;28;20568;-81
2022/04/20 08:00:14;;;;;;;1.53;0.90;;;19.60;43.00;;;;;;5033877;28;20503;-81
2022/04/20 08:02:41;;;;;;;0.63;0.63;;;19.80;43.40;;;;;;5033883;28;20505;-81
2022/04/20 08:05:08;;;;;;;1.03;0.90;;;19.90;43.20;;;;;;5034054;28;20458;-79
2022/04/20 08:07:37;;;;;;;2.00;1.20;;;19.70;43.40;;;;;;5033382;28;20962;-81
2022/04/20 08:10:06;;;;;;;0.70;0.70;;;20.40;43.90;;;;;;5033791;28;20203;-83
2022/04/20 08:12:36;;;;;;;1.88;1.02;;;21.10;42.90;;;;;;5033627;28;20227;-82
2022/04/20 08:15:04;;;;;;;1.08;0.95;;;21.30;41.60;;;;;;5033400;28;20179;-82
2022/04/20 08:17:31;;;;;;;0.67;0.67;;;21.70;41.30;;;;;;5033664;28;20494;-83
2022/04/20 08:19:58;;;;;;;1.00;0.80;;;22.20;40.50;;;;;;5033535;28;20555;-82
2022/04/20 08:22:26;;;;;;;1.40;1.10;;;22.40;40.20;;;;;;5033484;28;20630;-83
2022/04/20 08:24:54;;;;;;;3.33;0.88;;;22.70;39.90;;;;;;5033496;28;20196;-84
2022/04/20 08:27:22;;;;;;;0.88;0.88;;;23.00;38.70;;;;;;5033646;28;20229;-82
2022/04/20 08:29:49;;;;;;;2.80;1.23;;;22.80;38.10;;;;;;5033749;28;20191;-88
2022/04/20 08:32:17;;;;;;;1.13;0.90;;;22.70;39.00;;;;;;5035078;28;20601;-87
2022/04/20 08:34:44;;;;;;;1.67;0.77;;;22.40;39.00;;;;;;5034026;28;20242;-80
2022/04/20 08:37:11;;;;;;;1.63;1.17;;;22.10;40.00;;;;;;5033095;28;20606;-81
2022/04/20 08:39:38;;;;;;;0.87;0.87;;;21.60;40.40;;;;;;5033502;28;20208;-82
2022/04/20 08:42:09;;;;;;;2.40;1.00;;;21.70;40.90;;;;;;5033131;28;20223;-82
2022/04/20 08:44:38;;;;;;;2.10;0.90;;;22.00;40.30;;;;;;5032910;28;20188;-82
2022/04/20 08:47:07;;;;;;;0.80;0.80;;;21.60;40.40;;;;;;5033206;28;20876;-83
2022/04/20 08:49:34;;;;;;;1.03;0.97;;;21.00;39.80;;;;;;5033105;28;20435;-82
2022/04/20 08:54:48;;;;;;;0.80;0.80;;;18.90;42.00;;;;;;5032980;28;20475;-81
2022/04/20 08:57:19;;;;;;;1.03;0.80;;;17.90;42.60;;;;;;5033041;28;20483;-82
2022/04/20 08:59:48;;;;;;;0.80;0.80;;;17.40;44.00;;;;;;5033147;28;20524;-82
2022/04/20 09:02:16;;;;;;;1.00;0.73;;;17.80;45.10;;;;;;5033216;28;20470;-83
2022/04/20 09:04:43;;;;;;;0.90;0.60;;;18.60;42.40;;;;;;5033121;28;20450;-82
2022/04/20 09:07:11;;;;;;;0.53;0.53;;;18.70;43.20;;;;;;5033330;28;20481;-84
2022/04/20 09:09:38;;;;;;;0.93;0.80;;;18.90;41.90;;;;;;5033119;28;20452;-75
2022/04/20 09:12:10;;;;;;;0.70;0.70;;;18.90;42.10;;;;;;5033041;28;20471;-82
2022/04/20 09:14:39;;;;;;;0.50;0.50;;;19.00;42.60;;;;;;5033041;28;20466;-81
2022/04/20 09:17:06;;;;;;;1.00;0.70;;;19.10;42.10;;;;;;5033107;28;20450;-83
2022/04/20 09:19:33;;;;;;;1.30;0.90;;;18.90;40.60;;;;;;5032885;28;20470;-85
2022/04/20 09:22:00;;;;;;;0.70;0.60;;;18.30;41.50;;;;;;5033248;28;20473;-82
2022/04/20 09:24:26;;;;;;;0.90;0.70;;;18.00;42.30;;;;;;5032762;28;20976;-83
2022/04/20 09:26:55;;;;;;;0.80;0.57;;;17.70;42.70;;;;;;5032682;28;20498;-83
2022/04/20 09:29:22;;;;;;;0.70;0.70;;;17.50;43.80;;;;;;5033022;28;20430;-83
2022/04/20 09:31:51;;;;;;;0.87;0.67;;;17.40;42.30;;;;;;5032903;28;20467;-83
2022/04/20 09:34:54;;;;;;;1.50;0.60;;;17.30;42.20;;;;;;5033171;28;20453;-84
2022/04/20 09:37:22;;;;;;;0.80;0.60;;;16.90;42.60;;;;;;5026237;28;20520;-82
2022/04/20 09:39:51;;;;;;;0.80;0.67;;;16.70;42.60;;;;;;5032813;28;20471;-83
2022/04/20 09:42:18;;;;;;;1.13;0.70;;;16.70;42.80;;;;;;5032773;28;20463;-83
2022/04/20 09:44:55;;;;;;;0.60;0.60;;;16.70;42.70;;;;;;5032814;28;20431;-83
2022/04/20 09:50:10;;;;;;;0.50;0.40;;;17.70;42.20;;;;;;5032935;28;20453;-86
2022/04/20 09:52:39;;;;;;;1.20;0.40;;;17.70;40.80;;;;;;5032735;28;20477;-83
2022/04/20 09:55:07;;;;;;;0.70;0.70;;;17.30;40.40;;;;;;5033974;28;20482;-84
2022/04/20 09:57:37;;;;;;;0.83;0.60;;;17.10;40.60;;;;;;5036133;28;20482;-82
2022/04/20 10:00:10;;;;;;;1.23;0.40;;;16.90;41.40;;;;;;5035785;28;20993;-87
2022/04/20 10:02:47;;;;;;;0.40;0.30;;;16.90;41.60;;;;;;5035965;28;20532;-82
2022/04/20 10:05:14;;;;;;;0.40;0.40;;;16.80;40.20;;;;;;5036400;28;20442;-84
2022/04/20 10:07:41;;;;;;;2.63;0.80;;;16.80;41.00;;;;;;5035710;28;20439;-80
2022/04/20 10:10:10;;;;;;;0.50;0.50;;;16.70;41.70;;;;;;5035958;28;20446;-83
2022/04/20 10:12:39;;;;;;;1.10;0.60;;;16.70;41.70;;;;;;5035819;28;20526;-83
2022/04/20 10:17:56;;;;;;;0.80;0.60;;;16.50;42.10;;;;;;5035815;28;20444;-83
2022/04/20 10:20:25;;;;;;;0.70;0.70;;;16.60;42.70;;;;;;5035733;28;20965;-83
2022/04/20 10:22:52;;;;;;;1.07;0.80;;;16.70;42.70;;;;;;5036156;28;20958;-83
2022/04/20 10:25:19;;;;;;;1.07;1.00;;;16.80;42.60;;;;;;5035748;28;20972;-83
2022/04/20 10:28:05;;;;;;;0.40;0.40;;;16.80;41.20;;;;;;5035739;28;20450;-82
2022/04/20 10:30:45;;;;;;;0.70;0.60;;;16.80;38.20;;;;;;5034032;28;20455;-83
2022/04/20 10:33:16;;;;;;;1.07;0.40;;;17.00;38.90;;;;;;5035803;28;20447;-81
2022/04/20 10:35:56;;;;;;;0.60;0.53;;;17.00;40.90;;;;;;5035238;28;20808;-80
2022/04/20 10:38:24;;;;;;;1.10;0.90;;;17.20;41.00;;;;;;5035598;28;20454;-83
2022/04/20 10:41:02;;;;;;;0.70;0.70;;;17.70;40.80;;;;;;5035392;28;20473;-82
2022/04/20 10:43:31;;;;;;;0.50;0.50;;;18.00;40.60;;;;;;5035505;28;20441;-84
2022/04/20 10:46:06;;;;;;;1.57;0.70;;;18.50;40.50;;;;;;5035133;28;20982;-83
2022/04/20 10:48:55;;;;;;;0.50;0.50;;;18.90;39.90;;;;;;5035108;28;20449;-83
2022/04/20 10:51:24;;;;;;;0.70;0.70;;;19.20;41.40;;;;;;5034938;28;20463;-81
2022/04/20 10:53:53;;;;;;;1.90;0.70;;;19.90;40.10;;;;;;5035257;28;20450;-80
2022/04/20 10:56:21;;;;;;;1.47;0.70;;;19.90;38.50;;;;;;5035194;28;20453;-83
2022/04/20 10:59:08;;;;;;;0.70;0.70;;;19.70;38.70;;;;;;5034565;28;21039;-82
2022/04/20 11:02:09;;;;;;;0.70;0.70;;;19.70;39.10;;;;;;5035157;28;20476;-83
2022/04/20 11:04:41;;;;;;;1.47;1.30;;;20.00;38.90;;;;;;5033878;28;20516;-84
2022/04/20 11:07:34;;;;;;;0.50;0.50;;;19.80;38.60;;;;;;5034607;28;20443;-82
2022/04/20 11:10:08;;;;;;;1.20;1.10;;;18.80;40.80;;;;;;5025125;28;20450;-80
2022/04/20 11:18:42;;;;;;;0.60;0.60;;;17.10;42.70;;;;;;5034812;28;20468;-82
2022/04/20 11:21:17;;;;;;;2.10;0.57;;;16.80;42.90;;;;;;5034611;28;20463;-82
2022/04/20 11:23:51;;;;;;;1.00;0.77;;;16.40;43.80;;;;;;5034579;28;20493;-81
2022/04/20 11:26:20;;;;;;;0.80;0.60;;;16.00;45.30;;;;;;5034574;28;20457;-81
2022/04/20 11:28:47;;;;;;;1.10;1.00;;;15.90;44.80;;;;;;5034528;28;20517;-83
2022/04/20 11:31:15;;;;;;;0.80;0.60;;;15.60;45.20;;;;;;5034367;28;21009;-83
2022/04/20 11:33:42;;;;;;;1.37;0.70;;;15.60;44.80;;;;;;5034605;28;20431;-82
2022/04/20 11:36:12;;;;;;;0.70;0.70;;;15.50;45.40;;;;;;5034441;28;20568;-82
2022/04/20 11:38:41;;;;;;;1.03;0.50;;;15.50;45.30;;;;;;5034468;28;20482;-81
2022/04/20 11:41:09;;;;;;;1.27;0.73;;;15.30;45.40;;;;;;5034183;28;20482;-81
2022/04/20 11:43:36;;;;;;;0.40;0.33;;;15.10;45.70;;;;;;5034331;28;20451;-83
2022/04/20 11:46:03;;;;;;;2.00;0.90;;;15.20;46.40;;;;;;5033926;28;20965;-81
2022/04/20 11:48:30;;;;;;;0.50;0.50;;;15.10;46.50;;;;;;5034240;28;20451;-84
2022/04/20 11:50:57;;;;;;;0.50;0.50;;;15.20;46.40;;;;;;5034185;28;20451;-82
2022/04/20 11:53:32;;;;;;;0.70;0.70;;;15.00;46.80;;;;;;5033851;28;20881;-82
2022/04/20 11:56:00;;;;;;;0.70;0.63;;;15.00;46.80;;;;;;5033695;28;20919;-82
2022/04/20 11:58:27;;;;;;;0.60;0.60;;;15.10;46.90;;;;;;5033728;28;20550;-83
2022/04/20 12:01:01;;;;;;;1.20;0.73;;;15.10;46.00;;;;;;5033518;28;20467;-81
2022/04/20 12:03:31;;;;;;;0.70;0.70;;;15.10;45.90;;;;;;5033877;28;20874;-82
2022/04/20 12:06:05;;;;;;;1.20;0.50;;;15.10;45.10;;;;;;5033788;28;20501;-82
2022/04/20 12:08:34;;;;;;;0.50;0.43;;;15.00;46.80;;;;;;5033966;28;20454;-82
2022/04/20 12:11:08;;;;;;;0.60;0.60;;;15.20;46.10;;;;;;5033865;28;20471;-82
2022/04/20 12:13:35;;;;;;;0.80;0.53;;;15.30;45.90;;;;;;5033362;28;20437;-79
2022/04/20 12:16:07;;;;;;;0.50;0.50;;;15.10;45.80;;;;;;5033843;28;20454;-82
2022/04/20 12:18:36;;;;;;;0.90;0.70;;;14.90;45.80;;;;;;5032970;28;20439;-81
2022/04/20 12:21:04;;;;;;;0.60;0.60;;;14.90;45.80;;;;;;5033525;28;20495;-80
2022/04/20 12:23:35;;;;;;;0.80;0.80;;;14.70;45.30;;;;;;5033647;28;20419;-80
2022/04/20 12:26:06;;;;;;;0.70;0.60;;;14.60;46.40;;;;;;5033726;28;20518;-80
2022/04/20 12:28:44;;;;;;;4.93;0.70;;;14.60;46.40;;;;;;5033593;28;20784;-81
2022/04/20 12:31:12;;;;;;;0.37;0.37;;;14.40;45.90;;;;;;5033111;28;20820;-83
2022/04/20 12:33:40;;;;;;;0.50;0.50;;;14.30;46.20;;;;;;5033382;28;20530;-81
2022/04/20 12:36:09;;;;;;;0.50;0.40;;;14.30;46.20;;;;;;5033706;28;20438;-81
2022/04/20 12:38:44;;;;;;;0.40;0.40;;;14.40;46.30;;;;;;5033540;28;20431;-80
2022/04/20 12:41:37;;;;;;;1.00;0.63;;;14.30;45.80;;;;;;5032896;28;20855;-82
2022/04/20 12:44:41;;;;;;;0.47;0.47;;;14.20;46.30;;;;;;5033304;28;20431;-80
2022/04/20 12:47:33;;;;;;;0.40;0.40;;;14.10;46.90;;;;;;5033390;28;20569;-80
2022/04/20 12:50:35;;;;;;;0.60;0.60;;;14.10;46.40;;;;;;5033286;28;20428;-82
2022/04/20 12:53:01;;;;;;;1.77;0.60;;;13.90;47.10;;;;;;5032807;28;20548;-83
2022/04/20 12:55:36;;;;;;;0.50;0.40;;;13.70;46.40;;;;;;5033151;28;20450;-81
2022/04/20 13:03:41;;;;;;;0.70;0.70;;;13.70;48.30;;;;;;5033176;28;20418;-80
2022/04/20 13:06:10;;;;;;;2.87;0.93;;;13.80;47.60;;;;;;5032711;28;20938;-80
2022/04/20 13:08:37;;;;;;;0.50;0.50;;;13.80;47.20;;;;;;5032726;28;20966;-80
2022/04/20 13:11:04;;;;;;;0.60;0.50;;;13.80;48.20;;;;;;5033082;28;20469;-80
2022/04/20 13:13:33;;;;;;;0.50;0.50;;;13.90;47.20;;;;;;5032701;28;20942;-80
2022/04/20 13:16:00;;;;;;;1.80;1.00;;;13.90;46.80;;;;;;5032968;28;20459;-80
2022/04/20 13:18:27;;;;;;;0.50;0.50;;;13.80;46.90;;;;;;5032979;28;20596;-80
2022/04/20 13:20:55;;;;;;;0.90;0.37;;;13.70;47.40;;;;;;5032940;28;20477;-80
2022/04/20 13:23:22;;;;;;;1.27;0.90;;;13.80;48.00;;;;;;5032767;28;20435;-80
2022/04/20 13:28:34;;;;;;;1.80;0.47;;;13.70;47.20;;;;;;5033018;28;20403;-86
2022/04/20 13:31:02;;;;;;;0.37;0.37;;;13.60;47.20;;;;;;5036641;28;20965;-80
2022/04/20 13:33:29;;;;;;;1.57;0.50;;;13.60;47.00;;;;;;5036539;28;20415;-80
2022/04/20 13:35:55;;;;;;;0.60;0.40;;;13.50;47.70;;;;;;5036729;28;20451;-80